createdAt,value
2023-03-20T00:00:34.803Z,4.22
2023-03-20T00:03:20.416Z,3.60
2023-03-20T00:06:06.154Z,4.80
2023-03-20T00:08:54.009Z,6.00
2023-03-20T00:11:51.094Z,3.88
2023-03-20T00:14:36.100Z,3.78
2023-03-20T00:17:21.767Z,4.18
2023-03-20T00:20:10.520Z,5.32
2023-03-20T00:22:56.124Z,6.50
2023-03-20T00:25:43.214Z,6.55
2023-03-20T00:28:41.727Z,5.43
2023-03-20T00:31:29.868Z,6.13
2023-03-20T00:34:17.646Z,5.70
2023-03-20T00:37:03.007Z,4.80
2023-03-20T00:39:48.432Z,4.93
2023-03-20T00:42:34.714Z,5.43
2023-03-20T00:45:21.550Z,8.65
2023-03-20T00:48:09.595Z,5.60
2023-03-20T00:50:54.785Z,5.03
2023-03-20T00:53:40.098Z,5.50
2023-03-20T00:56:35.013Z,4.38
2023-03-20T00:59:23.722Z,4.00
2023-03-20T01:02:11.635Z,3.67
2023-03-20T01:04:58.165Z,5.70
2023-03-20T01:07:43.409Z,4.00
2023-03-20T01:10:32.123Z,5.28
2023-03-20T01:13:27.815Z,4.13
2023-03-20T01:16:25.548Z,4.72
2023-03-20T01:19:13.845Z,4.68
2023-03-20T01:21:58.968Z,4.30
2023-03-20T01:24:44.788Z,4.25
2023-03-20T01:27:30.125Z,5.22
2023-03-20T01:30:20.188Z,5.53
2023-03-20T01:33:17.791Z,3.65
2023-03-20T01:36:03.278Z,3.78
2023-03-20T01:38:58.623Z,3.42
2023-03-20T01:41:45.270Z,4.20
2023-03-20T01:44:33.618Z,5.13
2023-03-20T01:47:24.211Z,5.55
2023-03-20T01:50:26.740Z,6.72
2023-03-20T01:53:25.572Z,7.63
2023-03-20T01:56:14.682Z,6.03
2023-03-20T01:59:08.624Z,5.30
2023-03-20T02:01:54.330Z,4.85
2023-03-20T02:04:43.855Z,4.95
2023-03-20T02:07:29.830Z,7.20
2023-03-20T02:10:16.832Z,5.75
2023-03-20T02:13:04.172Z,6.68
2023-03-20T02:15:56.919Z,5.25
2023-03-20T02:18:45.709Z,4.72
2023-03-20T02:21:49.277Z,6.75
2023-03-20T02:25:02.156Z,4.88
2023-03-20T02:28:13.020Z,4.88
2023-03-20T02:31:13.269Z,5.28
2023-03-20T02:34:36.118Z,4.32
2023-03-20T02:37:36.615Z,3.58
2023-03-20T02:40:48.752Z,6.57
2023-03-20T02:44:06.078Z,4.93
2023-03-20T02:47:16.186Z,4.63
2023-03-20T02:50:07.626Z,5.00
2023-03-20T02:53:20.965Z,4.85
2023-03-20T02:56:17.559Z,4.03
2023-03-20T02:59:19.881Z,4.55
2023-03-20T03:02:12.480Z,4.90
2023-03-20T03:05:02.790Z,3.78
2023-03-20T03:07:51.882Z,5.65
2023-03-20T03:10:43.327Z,3.95
2023-03-20T03:13:32.403Z,4.28
2023-03-20T03:16:36.666Z,3.85
2023-03-20T03:19:27.990Z,4.40
2023-03-20T03:22:13.654Z,4.10
2023-03-20T03:24:59.200Z,6.25
2023-03-20T03:27:49.123Z,4.18
2023-03-20T03:30:38.802Z,4.03
2023-03-20T03:33:25.206Z,4.70
2023-03-20T03:36:25.482Z,4.40
2023-03-20T03:39:17.012Z,6.28
2023-03-20T03:42:12.188Z,4.30
2023-03-20T03:45:12.065Z,4.13
2023-03-20T03:48:04.211Z,5.80
2023-03-20T03:50:54.056Z,4.95
2023-03-20T03:53:44.096Z,4.50
2023-03-20T03:56:33.981Z,5.28
2023-03-20T03:59:34.201Z,4.28
2023-03-20T04:02:20.783Z,5.00
2023-03-20T04:05:08.586Z,4.53
2023-03-20T04:07:56.385Z,5.00
2023-03-20T04:10:41.655Z,4.63
2023-03-20T04:13:27.047Z,9.20
2023-03-20T04:16:17.293Z,7.25
2023-03-20T04:19:02.394Z,6.47
2023-03-20T04:21:47.874Z,7.43
2023-03-20T04:24:33.078Z,8.80
2023-03-20T04:27:18.999Z,6.40
2023-03-20T04:30:04.410Z,7.82
2023-03-20T04:32:49.861Z,9.15
2023-03-20T04:35:35.527Z,7.03
2023-03-20T04:38:23.088Z,8.43
2023-03-20T04:41:08.798Z,9.65
2023-03-20T04:43:53.951Z,19.30
2023-03-20T04:46:39.224Z,10.20
2023-03-20T04:49:24.832Z,8.85
2023-03-20T04:52:10.174Z,7.88
2023-03-20T04:54:55.579Z,7.78
2023-03-20T04:57:40.969Z,8.77
2023-03-20T05:00:26.391Z,7.35
2023-03-20T05:03:11.790Z,7.22
2023-03-20T05:05:57.098Z,8.45
2023-03-20T05:08:42.501Z,6.65
2023-03-20T05:11:28.648Z,7.57
2023-03-20T05:14:13.589Z,8.43
2023-03-20T05:16:59.217Z,8.13
2023-03-20T05:19:44.582Z,7.55
2023-03-20T05:22:30.075Z,11.05
2023-03-20T05:25:15.652Z,8.38
2023-03-20T05:28:01.260Z,11.40
2023-03-20T05:30:46.765Z,10.80
2023-03-20T05:33:32.435Z,7.97
2023-03-20T05:36:17.634Z,8.23
2023-03-20T05:39:02.898Z,12.00
2023-03-20T05:41:48.544Z,7.45
2023-03-20T05:44:33.739Z,7.88
2023-03-20T05:47:19.211Z,7.70
2023-03-20T05:50:05.469Z,11.95
2023-03-20T05:52:51.023Z,8.77
2023-03-20T05:55:36.825Z,8.30
2023-03-20T05:58:22.673Z,8.90
2023-03-20T06:01:08.176Z,10.35
2023-03-20T06:03:53.345Z,11.75
2023-03-20T06:06:38.619Z,9.25
2023-03-20T06:09:24.036Z,10.38
2023-03-20T06:12:09.644Z,9.88
2023-03-20T06:14:54.657Z,14.13
2023-03-20T06:17:40.234Z,10.82
2023-03-20T06:20:26.195Z,13.80
2023-03-20T06:23:11.959Z,10.10
2023-03-20T06:25:57.086Z,11.23
2023-03-20T06:28:42.607Z,11.70
2023-03-20T06:31:27.958Z,10.55
2023-03-20T06:34:13.392Z,9.52
2023-03-20T06:36:58.927Z,12.07
2023-03-20T06:39:44.333Z,11.90
2023-03-20T06:42:29.798Z,14.20
2023-03-20T06:45:15.811Z,11.43
2023-03-20T06:48:01.399Z,11.90
2023-03-20T06:50:46.548Z,11.10
2023-03-20T06:53:31.988Z,11.27
2023-03-20T06:56:17.520Z,13.15
2023-03-20T06:59:03.262Z,13.70
2023-03-20T07:01:48.297Z,11.60
2023-03-20T07:04:33.900Z,14.32
2023-03-20T07:07:19.550Z,13.07
2023-03-20T07:10:05.103Z,15.27
2023-03-20T07:12:51.065Z,15.05
2023-03-20T07:15:37.157Z,16.00
2023-03-20T07:18:22.894Z,12.70
2023-03-20T07:21:08.890Z,14.48
2023-03-20T07:23:53.938Z,16.58
2023-03-20T07:26:41.043Z,14.95
2023-03-20T07:29:26.439Z,14.15
2023-03-20T07:32:11.965Z,16.88
2023-03-20T07:34:57.280Z,20.98
2023-03-20T07:37:42.730Z,17.50
2023-03-20T07:40:28.267Z,16.73
2023-03-20T07:43:13.492Z,19.15
2023-03-20T07:46:01.525Z,17.77
2023-03-20T07:48:46.884Z,18.38
2023-03-20T07:51:32.334Z,17.85
2023-03-20T07:54:17.946Z,18.10
2023-03-20T07:57:05.334Z,17.55
2023-03-20T07:59:50.573Z,21.67
2023-03-20T08:02:35.759Z,16.25
2023-03-20T08:05:21.077Z,18.70
2023-03-20T08:08:06.577Z,18.25
2023-03-20T08:10:52.006Z,19.88
2023-03-20T08:13:37.876Z,21.25
2023-03-20T08:16:23.335Z,22.92
2023-03-20T08:19:08.930Z,23.38
2023-03-20T08:21:54.157Z,24.40
2023-03-20T08:24:40.692Z,21.55
2023-03-20T08:27:25.776Z,23.25
2023-03-20T08:30:12.983Z,24.33
2023-03-20T08:32:59.039Z,25.85
2023-03-20T08:35:44.831Z,26.80
2023-03-20T08:38:29.976Z,24.98
2023-03-20T08:41:15.605Z,23.20
2023-03-20T08:44:01.526Z,27.30
2023-03-20T08:46:47.396Z,27.35
2023-03-20T08:49:32.408Z,22.88
2023-03-20T08:52:17.809Z,24.92
2023-03-20T08:55:03.790Z,23.17
2023-03-20T08:57:49.189Z,23.52
2023-03-20T09:00:34.437Z,23.50
2023-03-20T09:03:21.634Z,24.88
2023-03-20T09:06:08.598Z,24.48
2023-03-20T09:08:55.446Z,26.35
2023-03-20T09:11:40.735Z,25.15
2023-03-20T09:14:27.289Z,23.05
2023-03-20T09:17:12.688Z,25.55
2023-03-20T09:19:58.189Z,28.30
2023-03-20T09:22:45.332Z,25.23
2023-03-20T09:25:30.374Z,27.15
2023-03-20T09:28:15.935Z,23.10
2023-03-20T09:31:01.798Z,24.35
2023-03-20T09:33:47.141Z,22.83
2023-03-20T09:36:33.184Z,22.83
2023-03-20T09:39:18.938Z,24.75
2023-03-20T09:42:29.597Z,25.88
2023-03-20T09:45:27.649Z,24.95
2023-03-20T09:48:33.194Z,23.13
2023-03-20T09:51:22.393Z,25.85
2023-03-20T09:54:28.107Z,24.20
2023-03-20T09:57:39.537Z,25.63
2023-03-20T10:00:28.244Z,23.25
2023-03-20T10:03:26.956Z,25.33
2023-03-20T10:06:17.932Z,25.48
2023-03-20T10:09:14.530Z,24.65
2023-03-20T10:12:21.396Z,23.70
2023-03-20T10:15:19.774Z,23.02
2023-03-20T10:18:13.210Z,24.98
2023-03-20T10:21:07.032Z,20.98
2023-03-20T10:24:03.492Z,24.45
2023-03-20T10:26:52.792Z,25.50
2023-03-20T10:30:18.785Z,25.38
2023-03-20T10:33:27.021Z,24.98
2023-03-20T10:36:31.199Z,24.17
2023-03-20T10:39:39.675Z,22.05
2023-03-20T10:42:30.457Z,28.05
2023-03-20T10:45:18.165Z,27.35
2023-03-20T10:48:20.443Z,26.55
2023-03-20T10:51:14.193Z,23.02
2023-03-20T10:54:04.351Z,27.42
2023-03-20T10:56:52.626Z,25.30
2023-03-20T10:59:40.339Z,24.95
2023-03-20T11:02:29.468Z,27.17
2023-03-20T11:05:36.834Z,23.50
2023-03-20T11:08:24.955Z,23.92
2023-03-20T11:11:10.726Z,25.77
2023-03-20T11:13:56.045Z,21.40
2023-03-20T11:16:41.419Z,26.05
2023-03-20T11:19:27.031Z,23.42
2023-03-20T11:22:29.426Z,23.73
2023-03-20T11:25:34.964Z,24.52
2023-03-20T11:28:21.186Z,23.80
2023-03-20T11:31:16.451Z,26.50
2023-03-20T11:34:04.726Z,22.50
2023-03-20T11:37:16.454Z,22.50
2023-03-20T11:40:14.578Z,23.67
2023-03-20T11:43:10.271Z,24.13
2023-03-20T11:45:59.155Z,27.58
2023-03-20T11:48:46.058Z,23.63
2023-03-20T11:51:32.013Z,22.90
2023-03-20T11:54:23.793Z,20.80
2023-03-20T11:57:32.542Z,21.83
2023-03-20T12:00:23.462Z,22.13
2023-03-20T12:03:48.009Z,23.20
2023-03-20T12:06:48.798Z,22.55
2023-03-20T12:09:50.795Z,21.80
2023-03-20T12:12:40.977Z,22.45
2023-03-20T12:15:33.370Z,23.05
2023-03-20T12:18:32.846Z,20.48
2023-03-20T12:21:27.664Z,17.42
2023-03-20T12:24:27.919Z,19.42
2023-03-20T12:27:34.854Z,18.02
2023-03-20T12:30:31.424Z,17.75
2023-03-20T12:33:28.748Z,19.60
2023-03-20T12:36:39.060Z,15.68
2023-03-20T12:39:34.425Z,14.98
2023-03-20T12:42:38.757Z,12.88
2023-03-20T12:45:33.513Z,12.73
2023-03-20T12:48:53.875Z,12.30
2023-03-20T12:51:54.083Z,12.32
2023-03-20T12:55:20.616Z,11.13
2023-03-20T12:58:47.317Z,11.55
2023-03-20T13:01:53.411Z,11.52
2023-03-20T13:04:53.982Z,10.40
2023-03-20T13:07:52.793Z,12.13
2023-03-20T13:11:03.158Z,11.30
2023-03-20T13:13:56.540Z,10.40
2023-03-20T13:17:13.958Z,9.15
2023-03-20T13:20:23.838Z,9.50
2023-03-20T13:23:24.130Z,8.95
2023-03-20T13:26:17.143Z,10.80
2023-03-20T13:29:18.931Z,10.23
2023-03-20T13:32:14.345Z,9.30
2023-03-20T13:35:45.051Z,10.73
2023-03-20T13:38:35.841Z,9.25
2023-03-20T13:41:24.269Z,8.20
2023-03-20T13:44:13.114Z,11.32
2023-03-20T13:47:06.647Z,9.38
2023-03-20T13:50:06.018Z,9.63
2023-03-20T13:53:17.277Z,7.55
2023-03-20T13:56:02.421Z,9.85
2023-03-20T13:59:28.414Z,8.50
2023-03-20T14:02:31.493Z,9.25
2023-03-20T14:05:20.437Z,9.73
2023-03-20T14:08:33.268Z,8.60
2023-03-20T14:11:21.415Z,7.68
2023-03-20T14:14:14.764Z,8.77
2023-03-20T14:17:01.399Z,8.45
2023-03-20T14:19:47.669Z,10.90
2023-03-20T14:22:40.805Z,8.50
2023-03-20T14:25:28.174Z,7.90
2023-03-20T14:28:13.504Z,8.65
2023-03-20T14:31:20.440Z,13.02
2023-03-20T14:34:20.586Z,8.35
2023-03-20T14:37:37.666Z,7.63
2023-03-20T14:40:28.395Z,10.52
2023-03-20T14:43:41.832Z,15.15
2023-03-20T14:46:50.964Z,11.40
2023-03-20T14:49:42.480Z,9.18
2023-03-20T14:52:44.748Z,8.63
2023-03-20T14:55:34.133Z,10.13
2023-03-20T14:58:34.246Z,9.50
2023-03-20T15:01:22.595Z,14.35
2023-03-20T15:04:19.774Z,15.23
2023-03-20T15:07:14.593Z,11.63
2023-03-20T15:10:03.033Z,12.20
2023-03-20T15:12:48.838Z,9.60
2023-03-20T15:15:34.238Z,11.20
2023-03-20T15:18:21.308Z,8.48
2023-03-20T15:21:16.617Z,10.20
2023-03-20T15:24:02.633Z,9.98
2023-03-20T15:26:53.001Z,10.05
2023-03-20T15:29:38.487Z,10.00
2023-03-20T15:32:24.369Z,9.80
2023-03-20T15:35:19.059Z,25.85
2023-03-20T15:38:07.436Z,12.32
2023-03-20T15:40:52.904Z,11.23
2023-03-20T15:43:38.394Z,11.77
2023-03-20T15:46:27.364Z,11.10
2023-03-20T15:49:21.379Z,11.38
2023-03-20T15:52:33.932Z,10.10
2023-03-20T15:55:22.664Z,11.88
2023-03-20T15:58:08.055Z,10.35
2023-03-20T16:00:53.631Z,10.23
2023-03-20T16:03:41.041Z,13.75
2023-03-20T16:06:27.235Z,9.65
2023-03-20T16:09:14.776Z,11.35
2023-03-20T16:12:02.996Z,12.52
2023-03-20T16:14:50.984Z,11.55
2023-03-20T16:17:36.389Z,10.30
2023-03-20T16:20:23.148Z,11.40
2023-03-20T16:23:09.628Z,12.68
2023-03-20T16:25:59.253Z,11.15
2023-03-20T16:28:50.985Z,13.45
2023-03-20T16:31:45.452Z,10.52
2023-03-20T16:34:37.702Z,10.00
2023-03-20T16:37:32.179Z,12.70
2023-03-20T16:40:22.420Z,9.40
2023-03-20T16:43:18.950Z,10.65
2023-03-20T16:46:06.728Z,10.63
2023-03-20T16:48:56.441Z,11.95
2023-03-20T16:51:43.994Z,13.52
2023-03-20T16:54:33.998Z,11.52
2023-03-20T16:57:19.709Z,11.88
2023-03-20T17:00:18.356Z,10.35
2023-03-20T17:03:11.975Z,12.10
2023-03-20T17:06:27.070Z,11.18
2023-03-20T17:09:26.440Z,11.30
2023-03-20T17:12:18.180Z,11.07
2023-03-20T17:15:04.130Z,14.15
2023-03-20T17:17:50.002Z,9.32
2023-03-20T17:20:35.973Z,15.43
2023-03-20T17:23:23.237Z,10.57
2023-03-20T17:26:12.864Z,10.65
2023-03-20T17:28:58.188Z,11.00
2023-03-20T17:31:43.541Z,13.75
2023-03-20T17:34:29.012Z,12.85
2023-03-20T17:37:20.673Z,11.80
2023-03-20T17:40:07.146Z,10.77
2023-03-20T17:42:52.468Z,10.48
2023-03-20T17:45:37.873Z,10.85
2023-03-20T17:48:23.053Z,10.27
2023-03-20T17:51:09.539Z,11.30
2023-03-20T17:53:57.659Z,11.73
2023-03-20T17:56:43.181Z,14.38
2023-03-20T17:59:31.105Z,12.02
2023-03-20T18:02:18.296Z,10.85
2023-03-20T18:05:04.138Z,13.30
2023-03-20T18:07:49.704Z,12.15
2023-03-20T18:10:37.030Z,11.23
2023-03-20T18:13:24.579Z,11.02
2023-03-20T18:16:22.914Z,11.90
2023-03-20T18:19:20.688Z,12.02
2023-03-20T18:22:07.021Z,12.68
2023-03-20T18:24:52.171Z,11.95
2023-03-20T18:27:37.572Z,12.80
2023-03-20T18:30:26.251Z,11.70
2023-03-20T18:33:11.379Z,15.95
2023-03-20T18:36:06.977Z,13.13
2023-03-20T18:39:07.837Z,15.15
2023-03-20T18:41:56.198Z,16.95
2023-03-20T18:44:44.830Z,14.30
2023-03-20T18:47:31.451Z,14.52
2023-03-20T18:50:29.203Z,16.35
2023-03-20T18:53:14.955Z,12.85
2023-03-20T18:56:01.418Z,14.73
2023-03-20T18:58:53.675Z,18.00
2023-03-20T19:01:42.565Z,15.02
2023-03-20T19:04:32.803Z,17.45
2023-03-20T19:07:21.242Z,14.75
2023-03-20T19:10:29.831Z,14.55
2023-03-20T19:13:19.384Z,17.92
2023-03-20T19:16:23.423Z,16.33
2023-03-20T19:19:16.399Z,14.13
2023-03-20T19:22:13.066Z,20.35
2023-03-20T19:25:03.312Z,12.50
2023-03-20T19:27:51.704Z,11.45
2023-03-20T19:30:43.638Z,14.18
2023-03-20T19:33:52.263Z,13.30
2023-03-20T19:36:39.960Z,17.35
2023-03-20T19:39:29.989Z,20.08
2023-03-20T19:42:47.570Z,16.45
2023-03-20T19:45:26.411Z,15.20
2023-03-20T19:48:18.412Z,14.43
2023-03-20T19:51:06.956Z,15.95
2023-03-20T19:53:56.236Z,14.90
2023-03-20T19:56:50.496Z,16.33
2023-03-20T19:59:48.622Z,13.88
2023-03-20T20:02:42.868Z,15.30
2023-03-20T20:05:40.027Z,16.73
2023-03-20T20:08:42.494Z,14.07
2023-03-20T20:11:41.073Z,14.57
2023-03-20T20:14:29.705Z,17.05
2023-03-20T20:17:29.601Z,17.52
2023-03-20T20:21:14.233Z,15.68
2023-03-20T20:23:47.803Z,20.33
2023-03-20T20:26:47.867Z,15.27
2023-03-20T20:29:41.751Z,15.90
2023-03-20T20:32:40.457Z,17.63
2023-03-20T20:35:51.478Z,16.33
2023-03-20T20:39:02.895Z,16.73
2023-03-20T20:41:58.837Z,15.32
2023-03-20T20:44:48.298Z,15.18
2023-03-20T20:47:45.968Z,13.00
2023-03-20T20:51:13.854Z,13.88
2023-03-20T20:54:01.858Z,14.20
2023-03-20T20:56:48.090Z,18.30
2023-03-20T20:59:40.190Z,16.45
2023-03-20T21:02:33.726Z,18.10
2023-03-20T21:05:22.880Z,14.88
2023-03-20T21:08:21.103Z,15.82
2023-03-20T21:11:09.867Z,16.10
2023-03-20T21:14:02.424Z,15.88
2023-03-20T21:16:55.597Z,17.48
2023-03-20T21:19:45.636Z,16.52
2023-03-20T21:22:31.145Z,20.98
2023-03-20T21:25:18.681Z,19.60
2023-03-20T21:28:17.175Z,16.45
2023-03-20T21:31:23.305Z,17.50
2023-03-20T21:34:09.452Z,18.63
2023-03-20T21:36:54.881Z,16.50
2023-03-20T21:39:40.292Z,14.77
2023-03-20T21:42:26.024Z,14.65
2023-03-20T21:46:15.337Z,13.73
2023-03-20T21:48:54.595Z,14.65
2023-03-20T21:52:20.073Z,12.82
2023-03-20T22:01:29.170Z,13.23
2023-03-20T22:04:37.626Z,15.27
2023-03-20T22:07:28.835Z,17.42
2023-03-20T22:10:35.381Z,14.70
2023-03-20T22:23:07.652Z,11.40
2023-03-20T22:29:28.674Z,15.10
2023-03-20T22:47:02.551Z,14.02
2023-03-20T22:49:47.933Z,11.45
2023-03-20T22:52:49.847Z,12.98
2023-03-20T22:55:35.670Z,13.45
2023-03-20T22:58:20.853Z,15.50
2023-03-20T23:01:08.985Z,15.15
2023-03-20T23:03:54.100Z,12.80
2023-03-20T23:06:39.531Z,14.30
2023-03-20T23:09:24.973Z,14.98
2023-03-20T23:12:11.022Z,13.93
2023-03-20T23:14:56.074Z,15.57
2023-03-20T23:17:41.565Z,10.82
2023-03-20T23:20:27.109Z,13.00
2023-03-20T23:23:12.190Z,15.57
2023-03-20T23:26:09.731Z,11.90
2023-03-20T23:28:55.001Z,15.50
2023-03-20T23:31:40.329Z,12.68
2023-03-20T23:34:25.751Z,10.15
2023-03-20T23:37:11.119Z,12.02
2023-03-20T23:39:56.474Z,12.60
2023-03-20T23:42:41.857Z,14.75
2023-03-20T23:45:27.229Z,10.75
2023-03-20T23:48:13.255Z,13.10
2023-03-20T23:50:58.862Z,12.52
2023-03-20T23:53:44.200Z,12.13
2023-03-20T23:56:29.486Z,11.95
2023-03-20T23:59:21.948Z,12.60
